| time (UTC) | temp C | wind direction | speed KPH | gust KPH | rain 1hr cm | rain 24hr cm | rain mn cm | humidity % | barometer mb |
| 20260503131009 | 17 | 34 | 9.7 | 19.3 | 0.00 | 1.32 | 0.00 | 81 | 1018.8 |
| 20260503130505 | 17 | 27 | 11.3 | 17.7 | 0.00 | 1.32 | 0.00 | 84 | 1018.8 |
| 20260503110509 | 15 | 21 | 3.2 | 6.4 | 0.00 | 1.32 | 0.00 | 89 | 1018.0 |
| 20260503090505 | 15 | 82 | 3.2 | 8.0 | 0.00 | 1.32 | 0.00 | 88 | 1016.8 |
| 20260503081503 | 16 | 36 | 3.2 | 14.5 | 0.00 | 1.32 | 0.00 | 87 | 1016.6 |
| 20260503081006 | 16 | 30 | 4.8 | 9.7 | 0.00 | 1.32 | 0.00 | 87 | 1016.6 |
| 20260503080509 | 16 | 58 | 3.2 | 9.7 | 0.00 | 1.32 | 0.00 | 87 | 1016.6 |
| 20260503072509 | 16 | 49 | 1.6 | 12.9 | 0.00 | 1.32 | 0.00 | 86 | 1016.3 |
| 20260503072002 | 16 | 18 | 6.4 | 16.1 | 0.00 | 1.32 | 0.00 | 86 | 1016.2 |
| 20260503071509 | 16 | 18 | 4.8 | 16.1 | 0.00 | 1.32 | 0.00 | 86 | 1016.1 |
| 20260503071014 | 16 | 71 | 6.4 | 12.9 | 0.00 | 1.32 | 0.00 | 85 | 1016.1 |
| 20260503070508 | 16 | 27 | 6.4 | 12.9 | 0.00 | 1.32 | 0.00 | 85 | 1016.2 |
| 20260503055006 | 18 | 352 | 4.8 | 11.3 | 0.00 | 1.32 | 0.00 | 85 | 1016.5 |
| 20260503054517 | 18 | 22 | 3.2 | 11.3 | 0.00 | 1.32 | 0.00 | 85 | 1016.6 |
| 20260503054004 | 18 | 346 | 3.2 | 12.9 | 0.00 | 1.32 | 0.00 | 85 | 1016.7 |
| 20260503053507 | 18 | 32 | 4.8 | 14.5 | 0.00 | 1.32 | 0.00 | 85 | 1016.5 |
| 20260503053016 | 18 | 36 | 4.8 | 14.5 | 0.00 | 1.32 | 0.00 | 85 | 1016.4 |
| 20260503052510 | 18 | 38 | 3.2 | 9.7 | 0.00 | 1.32 | 0.00 | 85 | 1016.4 |
| 20260503052010 | 18 | 360 | 4.8 | 11.3 | 0.00 | 1.32 | 0.00 | 85 | 1016.3 |
| 20260503051515 | 18 | 19 | 3.2 | 12.9 | 0.00 | 1.32 | 0.00 | 85 | 1016.3 |
| 20260503051012 | 18 | 36 | 6.4 | 14.5 | 0.00 | 1.32 | 0.00 | 84 | 1016.1 |
| 20260503050512 | 18 | 32 | 8.0 | 14.5 | 0.00 | 1.32 | 0.00 | 85 | 1016.0 |
| 20260503050017 | 18 | 15 | 3.2 | 12.9 | 0.00 | 1.32 | 0.00 | 84 | 1015.9 |
| 20260503045507 | 18 | 52 | 4.8 | 9.7 | 0.00 | 1.32 | 0.00 | 85 | 1015.9 |
| 20260503045009 | 18 | 352 | 3.2 | 8.0 | 0.00 | 1.32 | 0.00 | 85 | 1015.9 |
| 20260503044532 | 18 | 21 | 3.2 | 17.7 | 0.00 | 1.32 | 0.00 | 84 | 1015.8 |
| 20260503044010 | 18 | 36 | 4.8 | 17.7 | 0.00 | 1.32 | 0.00 | 84 | 1015.8 |
| 20260503043504 | 18 | 5 | 6.4 | 20.9 | 0.00 | 1.32 | 0.00 | 84 | 1016.0 |
| 20260503043025 | 18 | 13 | 9.7 | 20.9 | 0.00 | 1.32 | 0.00 | 83 | 1015.8 |
| 20260503042505 | 18 | 360 | 9.7 | 14.5 | 0.00 | 1.32 | 0.00 | 84 | 1015.8 |
| 20260503042005 | 18 | 5 | 4.8 | 14.5 | 0.00 | 1.32 | 0.00 | 84 | 1015.6 |
| 20260503041522 | 18 | 38 | 3.2 | 14.5 | 0.00 | 1.32 | 0.00 | 84 | 1015.6 |
| 20260503041008 | 18 | 30 | 8.0 | 16.1 | 0.00 | 1.32 | 0.00 | 83 | 1015.7 |
| 20260503040505 | 18 | 345 | 8.0 | 16.1 | 0.00 | 1.32 | 0.00 | 83 | 1015.6 |
| 20260503040026 | 18 | 11 | 6.4 | 17.7 | 0.00 | 1.32 | 0.00 | 84 | 1015.6 |
| 20260503035507 | 18 | 22 | 8.0 | 22.5 | 0.00 | 1.32 | 1.32 | 83 | 1015.8 |
| 20260503035013 | 19 | 340 | 4.8 | 25.7 | 0.00 | 1.32 | 1.32 | 84 | 1015.6 |
| 20260503034516 | 19 | 350 | 12.9 | 25.7 | 0.00 | 1.32 | 1.32 | 84 | 1015.4 |
| 20260503034004 | 19 | 352 | 8.0 | 20.9 | 0.00 | 1.32 | 1.32 | 85 | 1015.4 |
| 20260503033510 | 19 | 30 | 6.4 | 20.9 | 0.00 | 1.32 | 1.32 | 85 | 1015.3 |
| 20260503033015 | 20 | 65 | 9.7 | 22.5 | 0.00 | 1.32 | 1.32 | 85 | 1015.2 |
| 20260503032509 | 20 | 26 | 11.3 | 25.7 | 0.00 | 1.32 | 1.32 | 85 | 1015.0 |
| 20260503032011 | 20 | 24 | 12.9 | 25.7 | 0.00 | 1.32 | 1.32 | 85 | 1015.1 |
| 20260503031516 | 20 | 352 | 9.7 | 25.7 | 0.00 | 1.32 | 1.32 | 85 | 1014.9 |
| 20260503031005 | 20 | 5 | 12.9 | 25.7 | 0.00 | 1.32 | 1.32 | 85 | 1015.1 |
| 20260503030509 | 20 | 35 | 4.8 | 22.5 | 0.00 | 1.32 | 1.32 | 86 | 1014.9 |
| 20260503030011 | 20 | 338 | 11.3 | 22.5 | 0.00 | 1.32 | 1.32 | 85 | 1014.7 |
| 20260503025506 | 21 | 19 | 12.9 | 22.5 | 0.00 | 1.32 | 1.32 | 85 | 1014.9 |
| 20260503025007 | 21 | 9 | 9.7 | 20.9 | 0.00 | 1.32 | 1.32 | 85 | 1014.9 |
| 20260503024526 | 21 | 5 | 9.7 | 20.9 | 0.00 | 1.32 | 1.32 | 85 | 1014.5 |
| 20260503024008 | 21 | 347 | 8.0 | 17.7 | 0.00 | 1.32 | 1.32 | 85 | 1014.4 |
| 20260503023507 | 21 | 17 | 9.7 | 19.3 | 0.00 | 1.32 | 1.32 | 84 | 1014.3 |
| 20260503023022 | 21 | 25 | 11.3 | 19.3 | 0.00 | 1.32 | 1.32 | 84 | 1014.1 |
| 20260503022506 | 21 | 360 | 6.4 | 16.1 | 0.00 | 1.32 | 1.32 | 84 | 1014.0 |
| 20260503022015 | 21 | 352 | 6.4 | 16.1 | 0.00 | 1.32 | 1.32 | 84 | 1014.0 |
| 20260503021522 | 21 | 34 | 6.4 | 14.5 | 0.00 | 1.32 | 1.32 | 84 | 1014.3 |
| 20260503021015 | 21 | 334 | 4.8 | 12.9 | 0.00 | 1.32 | 1.32 | 85 | 1014.2 |
| 20260503020511 | 21 | 323 | 3.2 | 8.0 | 0.00 | 1.32 | 1.32 | 86 | 1014.1 |
| 20260503020016 | 21 | 13 | 1.6 | 8.0 | 0.00 | 1.32 | 1.32 | 86 | 1013.7 |
| 20260503015506 | 21 | 13 | 1.6 | 12.9 | 0.00 | 1.32 | 1.32 | 85 | 1013.9 |
| 20260503015010 | 21 | 360 | 4.8 | 12.9 | 0.00 | 1.32 | 1.32 | 85 | 1013.8 |
| 20260503014516 | 21 | 329 | 4.8 | 9.7 | 0.00 | 1.32 | 1.32 | 85 | 1013.5 |
| 20260503014007 | 21 | 329 | 4.8 | 9.7 | 0.00 | 1.32 | 1.32 | 85 | 1013.3 |
| 20260503013510 | 21 | 326 | 3.2 | 9.7 | 0.00 | 1.32 | 1.32 | 85 | 1013.2 |
| 20260503013021 | 21 | 332 | 4.8 | 11.3 | 0.00 | 1.32 | 1.32 | 85 | 1013.0 |
| 20260503012509 | 21 | 303 | 4.8 | 11.3 | 0.00 | 1.32 | 1.32 | 85 | 1013.0 |
| 20260503012014 | 21 | 301 | 4.8 | 12.9 | 0.00 | 1.32 | 1.32 | 86 | 1013.0 |
| 20260503011519 | 21 | 341 | 4.8 | 12.9 | 0.00 | 1.32 | 1.32 | 86 | 1012.7 |
| 20260503011011 | 21 | 309 | 4.8 | 17.7 | 0.00 | 1.32 | 1.32 | 86 | 1012.5 |
| 20260503010511 | 21 | 325 | 4.8 | 17.7 | 0.00 | 1.32 | 1.32 | 86 | 1012.5 |
| 20260503010016 | 21 | 303 | 8.0 | 17.7 | 0.00 | 1.32 | 1.32 | 86 | 1012.5 |
| 20260503005509 | 21 | 309 | 6.4 | 17.7 | 0.00 | 1.32 | 1.32 | 86 | 1012.2 |
| 20260503005009 | 21 | 322 | 6.4 | 17.7 | 0.00 | 1.32 | 1.32 | 87 | 1012.2 |
| 20260503004524 | 21 | 320 | 4.8 | 12.9 | 0.00 | 1.32 | 1.32 | 88 | 1012.3 |
| 20260503004010 | 21 | 304 | 3.2 | 12.9 | 0.00 | 1.32 | 1.32 | 88 | 1012.1 |
| 20260503003508 | 22 | 321 | 3.2 | 12.9 | 0.00 | 1.32 | 1.32 | 89 | 1012.1 |
| 20260503003011 | 22 | 319 | 6.4 | 12.9 | 0.00 | 1.32 | 1.32 | 89 | 1012.1 |
| 20260503002503 | 22 | 302 | 4.8 | 8.0 | 0.00 | 1.32 | 1.32 | 91 | 1012.2 |
| 20260503002007 | 22 | 317 | 3.2 | 4.8 | 0.00 | 1.32 | 1.32 | 91 | 1011.8 |
| 20260503001512 | 22 | 339 | 1.6 | 4.8 | 0.00 | 1.32 | 1.32 | 91 | 1011.7 |
| 20260503001003 | 22 | 324 | 1.6 | 3.2 | 0.00 | 1.32 | 1.32 | 91 | 1011.9 |
| 20260503000507 | 22 | 299 | 0.0 | 3.2 | 0.00 | 1.32 | 1.32 | 91 | 1011.9 |
| 20260503000014 | 22 | 196 | 0.0 | 3.2 | 0.00 | 1.32 | 1.32 | 91 | 1011.8 |
| 20260502235507 | 22 | 196 | 1.6 | 3.2 | 0.00 | 1.32 | 1.32 | 91 | 1011.6 |
| 20260502235006 | 22 | 196 | 1.6 | 3.2 | 0.00 | 1.32 | 1.32 | 91 | 1011.6 |
| 20260502234510 | 22 | 228 | 0.0 | 6.4 | 0.00 | 1.32 | 1.32 | 91 | 1011.6 |
| 20260502234009 | 22 | 190 | 1.6 | 6.4 | 0.00 | 1.32 | 1.32 | 91 | 1011.4 |
| 20260502233504 | 22 | 192 | 3.2 | 6.4 | 0.00 | 1.32 | 1.32 | 90 | 1011.5 |
| 20260502233015 | 22 | 233 | 1.6 | 8.0 | 0.00 | 1.32 | 1.32 | 90 | 1011.8 |
| 20260502232507 | 22 | 224 | 3.2 | 11.3 | 0.00 | 1.32 | 1.32 | 91 | 1011.6 |
| 20260502232004 | 22 | 201 | 4.8 | 12.9 | 0.00 | 1.32 | 1.32 | 90 | 1011.7 |
| 20260502231512 | 21 | 186 | 6.4 | 12.9 | 0.00 | 1.32 | 1.32 | 90 | 1011.6 |
| 20260502231004 | 22 | 218 | 6.4 | 11.3 | 0.00 | 1.32 | 1.32 | 90 | 1011.5 |
| 20260502230504 | 22 | 225 | 8.0 | 11.3 | 0.00 | 1.32 | 1.32 | 90 | 1011.7 |
| 20260502230006 | 21 | 211 | 6.4 | 11.3 | 0.00 | 1.32 | 1.32 | 91 | 1011.6 |
| 20260502225507 | 21 | 200 | 4.8 | 9.7 | 0.00 | 1.32 | 1.32 | 91 | 1011.5 |
| 20260502225008 | 21 | 193 | 6.4 | 12.9 | 0.00 | 1.32 | 1.32 | 91 | 1011.3 |
| 20260502224517 | 21 | 172 | 3.2 | 12.9 | 0.00 | 1.32 | 1.32 | 91 | 1011.2 |
| 20260502224004 | 21 | 182 | 4.8 | 12.9 | 0.00 | 1.32 | 1.32 | 90 | 1011.1 |
| 20260502223508 | 21 | 184 | 8.0 | 11.3 | 0.00 | 1.32 | 1.32 | 90 | 1011.2 |
| 20260502223014 | 21 | 178 | 4.8 | 9.7 | 0.00 | 1.32 | 1.32 | 91 | 1011.3 |
| 20260502222504 | 21 | 198 | 4.8 | 14.5 | 0.00 | 1.32 | 1.32 | 91 | 1011.4 |
| 20260502222005 | 21 | 184 | 4.8 | 16.1 | 0.00 | 1.32 | 1.32 | 91 | 1011.4 |
| 20260502221513 | 21 | 194 | 8.0 | 19.3 | 0.00 | 1.32 | 1.32 | 91 | 1011.4 |
| 20260502221008 | 21 | 179 | 6.4 | 19.3 | 0.00 | 1.32 | 1.32 | 91 | 1011.4 |
| 20260502220504 | 21 | 165 | 11.3 | 17.7 | 0.00 | 1.32 | 1.32 | 91 | 1011.6 |
| 20260502220008 | 21 | 165 | 9.7 | 17.7 | 0.00 | 1.32 | 1.32 | 91 | 1011.6 |
| 20260502215508 | 21 | 192 | 11.3 | 17.7 | 0.00 | 1.32 | 1.32 | 91 | 1011.4 |
| 20260502215006 | 21 | 184 | 6.4 | 12.9 | 0.00 | 1.32 | 1.32 | 91 | 1011.3 |
| 20260502214508 | 21 | 201 | 6.4 | 11.3 | 0.00 | 1.32 | 1.32 | 91 | 1011.2 |
| 20260502214007 | 21 | 194 | 4.8 | 9.7 | 0.00 | 1.32 | 1.32 | 91 | 1011.0 |
| 20260502213507 | 21 | 186 | 6.4 | 9.7 | 0.00 | 1.32 | 1.32 | 91 | 1011.0 |
| 20260502213009 | 22 | 175 | 4.8 | 9.7 | 0.00 | 1.32 | 1.32 | 91 | 1010.8 |
| 20260502212504 | 22 | 178 | 1.6 | 6.4 | 0.00 | 1.32 | 1.32 | 91 | 1010.3 |
| 20260502212008 | 22 | 92 | 0.0 | 3.2 | 0.00 | 1.32 | 1.32 | 91 | 1010.3 |
| 20260502211529 | 22 | 40 | 1.6 | 6.4 | 0.00 | 1.32 | 1.32 | 91 | 1010.3 |
| 20260502211004 | 22 | 157 | 0.0 | 6.4 | 0.00 | 1.32 | 1.32 | 91 | 1010.6 |
| 20260502210504 | 21 | 307 | 1.6 | 4.8 | 0.00 | 1.32 | 1.32 | 91 | 1010.9 |
| 20260502210029 | 21 | 229 | 0.0 | 9.7 | 0.00 | 1.32 | 1.32 | 91 | 1010.7 |
| 20260502205509 | 21 | 199 | 1.6 | 9.7 | 0.00 | 1.32 | 1.32 | 91 | 1010.5 |
| 20260502205009 | 21 | 216 | 1.6 | 12.9 | 0.00 | 1.32 | 1.32 | 91 | 1010.7 |
| 20260502204521 | 21 | 286 | 4.8 | 12.9 | 0.00 | 1.32 | 1.32 | 91 | 1010.9 |
| 20260502204004 | 21 | 229 | 3.2 | 17.7 | 0.00 | 1.32 | 1.32 | 91 | 1011.1 |
| 20260502203504 | 21 | 202 | 6.4 | 17.7 | 0.00 | 1.32 | 1.32 | 92 | 1011.0 |
| 20260502203017 | 21 | 236 | 3.2 | 9.7 | 0.00 | 1.32 | 1.32 | 92 | 1011.3 |
| 20260502202504 | 21 | 216 | 6.4 | 14.5 | 0.03 | 1.32 | 1.32 | 91 | 1011.5 |
| 20260502202003 | 21 | 231 | 4.8 | 16.1 | 0.08 | 1.32 | 1.32 | 91 | 1011.5 |
| 20260502201519 | 21 | 196 | 8.0 | 16.1 | 0.13 | 1.32 | 1.32 | 91 | 1011.6 |
| 20260502201008 | 21 | 175 | 9.7 | 16.1 | 0.18 | 1.32 | 1.32 | 91 | 1011.2 |
| 20260502200512 | 21 | 186 | 6.4 | 14.5 | 0.20 | 1.32 | 1.32 | 91 | 1011.1 |
| 20260502200010 | 21 | 170 | 8.0 | 16.1 | 0.25 | 1.32 | 1.32 | 91 | 1011.4 |
| 20260502195509 | 21 | 180 | 9.7 | 16.1 | 0.28 | 1.32 | 1.32 | 91 | 1011.2 |
| 20260502195007 | 21 | 160 | 6.4 | 12.9 | 0.30 | 1.32 | 1.32 | 91 | 1011.3 |
| 20260502194511 | 21 | 174 | 8.0 | 11.3 | 0.33 | 1.32 | 1.32 | 91 | 1011.2 |
| 20260502194006 | 21 | 178 | 3.2 | 12.9 | 0.36 | 1.32 | 1.32 | 91 | 1011.1 |
| 20260502193509 | 21 | 276 | 6.4 | 12.9 | 0.38 | 1.32 | 1.32 | 91 | 1011.1 |
| 20260502193029 | 21 | 311 | 3.2 | 9.7 | 0.38 | 1.32 | 1.32 | 90 | 1010.8 |
| 20260502192507 | 21 | 219 | 0.0 | 16.1 | 0.38 | 1.30 | 1.30 | 90 | 1010.9 |
| 20260502192008 | 21 | 304 | 1.6 | 16.1 | 0.33 | 1.24 | 1.24 | 90 | 1011.3 |
| 20260502191525 | 21 | 250 | 4.8 | 16.1 | 0.28 | 1.19 | 1.19 | 90 | 1012.1 |
| 20260502191008 | 20 | 209 | 4.8 | 16.1 | 0.28 | 1.14 | 1.14 | 90 | 1012.2 |
| 20260502190504 | 20 | 251 | 6.4 | 17.7 | 0.48 | 1.12 | 1.12 | 90 | 1012.9 |
| 20260502190029 | 20 | 254 | 6.4 | 17.7 | 0.56 | 1.07 | 1.07 | 89 | 1013.0 |
| 20260502185508 | 20 | 217 | 6.4 | 17.7 | 0.81 | 1.04 | 1.04 | 89 | 1012.8 |
| 20260502185007 | 20 | 208 | 6.4 | 27.4 | 1.02 | 1.02 | 1.02 | 89 | 1012.7 |
| 20260502184521 | 20 | 259 | 14.5 | 27.4 | 0.99 | 0.99 | 0.99 | 89 | 1012.7 |
| 20260502184009 | 20 | 242 | 8.0 | 25.7 | 0.97 | 0.97 | 0.97 | 89 | 1012.8 |
| 20260502183512 | 20 | 212 | 16.1 | 25.7 | 0.94 | 0.94 | 0.94 | 89 | 1013.2 |
| 20260502183016 | 20 | 206 | 9.7 | 20.9 | 0.94 | 0.94 | 0.94 | 88 | 1012.3 |
| 20260502182508 | 20 | 209 | 9.7 | 20.9 | 0.91 | 0.91 | 0.91 | 88 | 1012.7 |
| 20260502182016 | 20 | 221 | 4.8 | 22.5 | 0.91 | 0.91 | 0.91 | 88 | 1013.2 |
| 20260502181511 | 20 | 248 | 9.7 | 22.5 | 0.91 | 0.91 | 0.91 | 87 | 1013.1 |
| 20260502181007 | 21 | 215 | 8.0 | 27.4 | 0.86 | 0.86 | 0.86 | 85 | 1013.4 |
| 20260502180510 | 21 | 278 | 9.7 | 32.2 | 0.64 | 0.64 | 0.64 | 83 | 1013.5 |
| 20260502170504 | 27 | 207 | 11.3 | 37.0 | 0.00 | 0.00 | 0.00 | 76 | 1012.1 |
| 20260502164008 | 27 | 236 | 12.9 | 32.2 | 0.00 | 0.00 | 0.00 | 75 | 1012.1 |
| 20260502163511 | 27 | 228 | 11.3 | 37.0 | 0.00 | 0.00 | 0.00 | 76 | 1012.1 |
| 20260502163030 | 27 | 183 | 16.1 | 35.4 | 0.00 | 0.00 | 0.00 | 75 | 1012.3 |
| 20260502162506 | 27 | 196 | 14.5 | 38.6 | 0.00 | 0.00 | 0.00 | 75 | 1012.2 |
| 20260502162011 | 27 | 259 | 11.3 | 38.6 | 0.00 | 0.00 | 0.00 | 76 | 1012.2 |
| 20260502161522 | 27 | 205 | 17.7 | 35.4 | 0.00 | 0.00 | 0.00 | 76 | 1012.2 |
| 20260502161006 | 27 | 192 | 22.5 | 40.2 | 0.00 | 0.00 | 0.00 | 76 | 1012.1 |
| 20260502160508 | 27 | 232 | 24.1 | 40.2 | 0.00 | 0.00 | 0.00 | 76 | 1012.0 |
| 20260502152001 | 28 | 206 | 16.1 | 43.5 | 0.00 | 0.00 | 0.00 | 69 | 1012.1 |
| 20260502151501 | 28 | 200 | 12.9 | 43.5 | 0.00 | 0.00 | 0.00 | 68 | 1012.1 |
| 20260502151003 | 28 | 253 | 6.4 | 33.8 | 0.00 | 0.00 | 0.00 | 70 | 1012.1 |
| 20260502150501 | 28 | 210 | 16.1 | 48.3 | 0.00 | 0.00 | 0.00 | 70 | 1011.8 |